createdAt,value
2023-03-23T03:32:29.876Z,26.11
2023-03-23T03:40:30.000Z,26.11
2023-03-23T03:48:30.396Z,26.09
2023-03-23T03:56:30.797Z,26.11
2023-03-23T04:36:57.013Z,26.09
2023-03-23T04:44:30.860Z,26.09
2023-03-23T04:52:30.946Z,26.09
2023-03-23T05:00:31.348Z,26.08
2023-03-23T05:08:31.926Z,26.09
2023-03-23T05:16:31.926Z,26.09
2023-03-23T05:24:31.921Z,26.09
2023-03-23T05:32:31.939Z,26.09
2023-03-23T05:40:31.931Z,26.09
2023-03-23T05:48:31.935Z,26.11
2023-03-23T05:56:31.941Z,26.08
2023-03-23T06:04:31.409Z,26.09
2023-03-23T06:12:31.348Z,26.13
2023-03-23T06:16:32.416Z,26.11
2023-03-23T06:24:31.422Z,26.13
2023-03-23T06:32:31.521Z,26.14
2023-03-23T06:40:31.418Z,26.17
2023-03-23T06:44:32.415Z,26.14
2023-03-23T06:52:32.431Z,26.15
2023-03-23T06:56:32.909Z,26.14
2023-03-23T07:08:32.919Z,26.20
2023-03-23T07:12:32.945Z,26.20
2023-03-23T07:16:32.940Z,26.22
2023-03-23T07:20:33.446Z,26.28
2023-03-23T07:28:32.425Z,26.31
2023-03-23T07:36:32.473Z,26.36
2023-03-23T07:40:33.276Z,26.36
2023-03-23T07:44:32.924Z,26.38
2023-03-23T07:52:32.969Z,26.41
2023-03-23T08:00:31.554Z,26.45
2023-03-23T08:04:32.933Z,26.46
2023-03-23T08:24:31.461Z,26.53
2023-03-23T08:40:31.524Z,26.59
2023-03-23T08:44:32.446Z,26.59
2023-03-23T08:48:32.449Z,26.62
2023-03-23T08:52:32.442Z,26.62
2023-03-23T08:56:32.505Z,26.62
2023-03-23T09:00:34.068Z,26.68
2023-03-23T09:04:32.739Z,26.64
2023-03-23T09:08:31.954Z,26.68
2023-03-23T09:12:31.912Z,26.70
2023-03-23T09:16:31.960Z,26.69
2023-03-23T09:20:31.851Z,26.73
2023-03-23T09:24:31.957Z,26.70
2023-03-23T09:28:32.019Z,26.72
2023-03-23T09:32:31.959Z,26.73
2023-03-23T09:36:31.793Z,26.75
2023-03-23T09:40:32.011Z,26.73
2023-03-23T09:44:32.063Z,26.79
2023-03-23T16:32:49.817Z,26.48
